sensor_id;sensor_type;location;lat;lon;timestamp;temperature;humidity
66257;DHT22;53049;43.446;3.698;2024-01-11T00:01:59;10.10;99.90
66257;DHT22;53049;43.446;3.698;2024-01-11T00:04:25;10.10;99.90
66257;DHT22;53049;43.446;3.698;2024-01-11T00:06:51;10.10;99.90
66257;DHT22;53049;43.446;3.698;2024-01-11T00:09:17;10.10;99.90
66257;DHT22;53049;43.446;3.698;2024-01-11T00:11:43;10.10;99.90
66257;DHT22;53049;43.446;3.698;2024-01-11T00:14:09;10.00;99.90
66257;DHT22;53049;43.446;3.698;2024-01-11T00:16:34;10.00;99.90
66257;DHT22;53049;43.446;3.698;2024-01-11T00:19:00;10.00;99.90
66257;DHT22;53049;43.446;3.698;2024-01-11T00:21:26;10.00;99.90
66257;DHT22;53049;43.446;3.698;2024-01-11T00:23:51;10.00;99.90
66257;DHT22;53049;43.446;3.698;2024-01-11T00:26:17;10.00;99.90
66257;DHT22;53049;43.446;3.698;2024-01-11T00:28:43;10.00;99.90
66257;DHT22;53049;43.446;3.698;2024-01-11T00:31:08;10.00;99.90
66257;DHT22;53049;43.446;3.698;2024-01-11T00:33:34;10.00;99.90
66257;DHT22;53049;43.446;3.698;2024-01-11T00:36:00;10.00;99.90
66257;DHT22;53049;43.446;3.698;2024-01-11T00:38:26;10.00;99.90
66257;DHT22;53049;43.446;3.698;2024-01-11T00:40:51;9.90;99.90
66257;DHT22;53049;43.446;3.698;2024-01-11T00:43:17;9.90;99.90
66257;DHT22;53049;43.446;3.698;2024-01-11T00:45:44;9.80;99.90
66257;DHT22;53049;43.446;3.698;2024-01-11T00:48:11;9.90;99.90
66257;DHT22;53049;43.446;3.698;2024-01-11T00:50:37;9.90;99.90
66257;DHT22;53049;43.446;3.698;2024-01-11T00:53:03;9.90;99.90
66257;DHT22;53049;43.446;3.698;2024-01-11T00:55:29;9.90;99.90
66257;DHT22;53049;43.446;3.698;2024-01-11T00:57:55;9.90;99.90
66257;DHT22;53049;43.446;3.698;2024-01-11T01:00:21;9.90;99.90
66257;DHT22;53049;43.446;3.698;2024-01-11T01:02:46;9.90;99.90
66257;DHT22;53049;43.446;3.698;2024-01-11T01:05:12;9.90;99.90
66257;DHT22;53049;43.446;3.698;2024-01-11T01:07:38;9.70;99.90
66257;DHT22;53049;43.446;3.698;2024-01-11T01:10:04;9.70;99.90
66257;DHT22;53049;43.446;3.698;2024-01-11T01:12:30;9.70;99.90
66257;DHT22;53049;43.446;3.698;2024-01-11T01:14:55;9.70;99.90
66257;DHT22;53049;43.446;3.698;2024-01-11T01:17:24;9.70;99.90
66257;DHT22;53049;43.446;3.698;2024-01-11T01:19:49;9.70;99.90
66257;DHT22;53049;43.446;3.698;2024-01-11T01:22:16;9.70;99.90
66257;DHT22;53049;43.446;3.698;2024-01-11T01:24:42;9.80;99.90
66257;DHT22;53049;43.446;3.698;2024-01-11T01:27:07;9.80;99.90
66257;DHT22;53049;43.446;3.698;2024-01-11T01:29:33;10.20;99.90
66257;DHT22;53049;43.446;3.698;2024-01-11T01:31:58;10.10;99.90
66257;DHT22;53049;43.446;3.698;2024-01-11T01:34:24;10.20;99.90
66257;DHT22;53049;43.446;3.698;2024-01-11T01:36:50;10.10;99.90
66257;DHT22;53049;43.446;3.698;2024-01-11T01:39:15;10.00;99.90
66257;DHT22;53049;43.446;3.698;2024-01-11T01:41:41;10.00;99.90
66257;DHT22;53049;43.446;3.698;2024-01-11T01:44:07;9.90;99.90
66257;DHT22;53049;43.446;3.698;2024-01-11T01:46:32;9.80;99.90
66257;DHT22;53049;43.446;3.698;2024-01-11T01:48:59;9.80;99.90
66257;DHT22;53049;43.446;3.698;2024-01-11T01:51:29;9.80;99.90
66257;DHT22;53049;43.446;3.698;2024-01-11T01:53:56;9.80;99.90
66257;DHT22;53049;43.446;3.698;2024-01-11T01:56:23;9.80;99.90
66257;DHT22;53049;43.446;3.698;2024-01-11T01:58:53;9.70;99.90
66257;DHT22;53049;43.446;3.698;2024-01-11T02:01:21;9.70;99.90
66257;DHT22;53049;43.446;3.698;2024-01-11T02:03:50;9.70;99.90
66257;DHT22;53049;43.446;3.698;2024-01-11T02:06:16;9.70;99.90
66257;DHT22;53049;43.446;3.698;2024-01-11T02:08:43;9.70;99.90
66257;DHT22;53049;43.446;3.698;2024-01-11T02:11:11;9.70;99.90
66257;DHT22;53049;43.446;3.698;2024-01-11T02:13:37;9.70;99.90
66257;DHT22;53049;43.446;3.698;2024-01-11T02:16:03;9.80;99.90
66257;DHT22;53049;43.446;3.698;2024-01-11T02:18:29;9.80;99.90
66257;DHT22;53049;43.446;3.698;2024-01-11T02:20:55;9.80;99.90
66257;DHT22;53049;43.446;3.698;2024-01-11T02:23:24;9.80;99.90
66257;DHT22;53049;43.446;3.698;2024-01-11T02:25:50;9.80;99.90
66257;DHT22;53049;43.446;3.698;2024-01-11T02:28:15;9.80;99.90
66257;DHT22;53049;43.446;3.698;2024-01-11T02:30:41;9.90;99.90
66257;DHT22;53049;43.446;3.698;2024-01-11T02:33:08;9.80;99.90
66257;DHT22;53049;43.446;3.698;2024-01-11T02:35:35;9.80;99.90
66257;DHT22;53049;43.446;3.698;2024-01-11T02:38:04;9.80;99.90
66257;DHT22;53049;43.446;3.698;2024-01-11T02:40:31;9.90;99.90
66257;DHT22;53049;43.446;3.698;2024-01-11T02:42:57;9.90;99.90
66257;DHT22;53049;43.446;3.698;2024-01-11T02:45:22;9.90;99.90
66257;DHT22;53049;43.446;3.698;2024-01-11T02:47:48;9.90;99.90
66257;DHT22;53049;43.446;3.698;2024-01-11T02:50:14;9.90;99.90
66257;DHT22;53049;43.446;3.698;2024-01-11T02:52:39;10.00;99.90
66257;DHT22;53049;43.446;3.698;2024-01-11T02:55:05;10.00;99.90
66257;DHT22;53049;43.446;3.698;2024-01-11T02:57:31;10.10;99.90
66257;DHT22;53049;43.446;3.698;2024-01-11T02:59:57;10.00;99.90
66257;DHT22;53049;43.446;3.698;2024-01-11T03:02:22;10.10;99.90
66257;DHT22;53049;43.446;3.698;2024-01-11T03:04:48;10.10;99.90
66257;DHT22;53049;43.446;3.698;2024-01-11T03:07:14;10.10;99.90
66257;DHT22;53049;43.446;3.698;2024-01-11T03:09:40;10.00;99.90
66257;DHT22;53049;43.446;3.698;2024-01-11T03:12:05;10.00;99.90
66257;DHT22;53049;43.446;3.698;2024-01-11T03:14:32;10.00;99.90
66257;DHT22;53049;43.446;3.698;2024-01-11T03:16:57;10.10;99.90
66257;DHT22;53049;43.446;3.698;2024-01-11T03:19:23;10.00;99.90
66257;DHT22;53049;43.446;3.698;2024-01-11T03:21:49;10.00;99.90
66257;DHT22;53049;43.446;3.698;2024-01-11T03:24:14;10.10;99.90
66257;DHT22;53049;43.446;3.698;2024-01-11T03:26:41;10.20;99.90
66257;DHT22;53049;43.446;3.698;2024-01-11T03:29:07;10.20;99.90
66257;DHT22;53049;43.446;3.698;2024-01-11T03:31:32;10.10;99.90
66257;DHT22;53049;43.446;3.698;2024-01-11T03:33:58;10.10;99.90
66257;DHT22;53049;43.446;3.698;2024-01-11T03:36:24;10.10;99.90
66257;DHT22;53049;43.446;3.698;2024-01-11T03:38:50;10.10;99.90
66257;DHT22;53049;43.446;3.698;2024-01-11T03:41:16;10.10;99.90
66257;DHT22;53049;43.446;3.698;2024-01-11T03:43:42;10.10;99.90
66257;DHT22;53049;43.446;3.698;2024-01-11T03:46:08;10.10;99.90
66257;DHT22;53049;43.446;3.698;2024-01-11T03:48:33;10.10;99.90
66257;DHT22;53049;43.446;3.698;2024-01-11T03:51:01;10.00;99.90
66257;DHT22;53049;43.446;3.698;2024-01-11T03:53:28;10.20;99.90
66257;DHT22;53049;43.446;3.698;2024-01-11T03:55:53;10.10;99.90
66257;DHT22;53049;43.446;3.698;2024-01-11T03:58:19;10.20;99.90
66257;DHT22;53049;43.446;3.698;2024-01-11T04:00:45;10.30;99.90
66257;DHT22;53049;43.446;3.698;2024-01-11T04:03:10;10.20;99.90
66257;DHT22;53049;43.446;3.698;2024-01-11T04:05:36;10.30;99.90
66257;DHT22;53049;43.446;3.698;2024-01-11T04:08:05;10.30;99.90
66257;DHT22;53049;43.446;3.698;2024-01-11T04:10:32;10.30;99.90
66257;DHT22;53049;43.446;3.698;2024-01-11T04:12:57;10.30;99.90
66257;DHT22;53049;43.446;3.698;2024-01-11T04:15:24;10.30;99.90
66257;DHT22;53049;43.446;3.698;2024-01-11T04:17:50;10.30;99.90
66257;DHT22;53049;43.446;3.698;2024-01-11T04:20:16;10.30;99.90
66257;DHT22;53049;43.446;3.698;2024-01-11T04:22:41;10.30;99.90
66257;DHT22;53049;43.446;3.698;2024-01-11T04:25:07;10.30;99.90
66257;DHT22;53049;43.446;3.698;2024-01-11T04:27:33;10.30;99.90
66257;DHT22;53049;43.446;3.698;2024-01-11T04:29:59;10.30;99.90
66257;DHT22;53049;43.446;3.698;2024-01-11T04:32:24;10.40;99.90
66257;DHT22;53049;43.446;3.698;2024-01-11T04:34:50;10.30;99.90
66257;DHT22;53049;43.446;3.698;2024-01-11T04:37:16;10.30;99.90
66257;DHT22;53049;43.446;3.698;2024-01-11T04:39:41;10.30;99.90
66257;DHT22;53049;43.446;3.698;2024-01-11T04:42:07;10.20;99.90
66257;DHT22;53049;43.446;3.698;2024-01-11T04:44:33;10.20;99.90
66257;DHT22;53049;43.446;3.698;2024-01-11T04:46:58;10.30;99.90
66257;DHT22;53049;43.446;3.698;2024-01-11T04:49:24;10.40;99.90
66257;DHT22;53049;43.446;3.698;2024-01-11T04:51:50;10.40;99.90
66257;DHT22;53049;43.446;3.698;2024-01-11T04:54:15;10.40;99.90
66257;DHT22;53049;43.446;3.698;2024-01-11T04:56:41;10.40;99.90
66257;DHT22;53049;43.446;3.698;2024-01-11T04:59:07;10.40;99.90
66257;DHT22;53049;43.446;3.698;2024-01-11T05:01:33;10.40;99.90
66257;DHT22;53049;43.446;3.698;2024-01-11T05:03:58;10.40;99.90
66257;DHT22;53049;43.446;3.698;2024-01-11T05:06:24;10.40;99.90
66257;DHT22;53049;43.446;3.698;2024-01-11T05:08:51;10.40;99.90
66257;DHT22;53049;43.446;3.698;2024-01-11T05:11:22;10.40;99.90
66257;DHT22;53049;43.446;3.698;2024-01-11T05:13:50;10.30;99.90
66257;DHT22;53049;43.446;3.698;2024-01-11T05:16:27;10.30;99.90
66257;DHT22;53049;43.446;3.698;2024-01-11T05:18:54;10.30;99.90
66257;DHT22;53049;43.446;3.698;2024-01-11T05:21:20;10.30;99.90
66257;DHT22;53049;43.446;3.698;2024-01-11T05:23:47;10.30;99.90
66257;DHT22;53049;43.446;3.698;2024-01-11T05:26:16;10.30;99.90
66257;DHT22;53049;43.446;3.698;2024-01-11T05:28:42;10.30;99.90
66257;DHT22;53049;43.446;3.698;2024-01-11T05:31:13;10.30;99.90
66257;DHT22;53049;43.446;3.698;2024-01-11T05:33:40;10.40;99.90
66257;DHT22;53049;43.446;3.698;2024-01-11T05:36:07;10.40;99.90
66257;DHT22;53049;43.446;3.698;2024-01-11T05:38:33;10.40;99.90
66257;DHT22;53049;43.446;3.698;2024-01-11T05:40:59;10.40;99.90
66257;DHT22;53049;43.446;3.698;2024-01-11T05:43:25;10.40;99.90
66257;DHT22;53049;43.446;3.698;2024-01-11T05:45:51;10.40;99.90
66257;DHT22;53049;43.446;3.698;2024-01-11T05:48:17;10.40;99.90
66257;DHT22;53049;43.446;3.698;2024-01-11T05:50:44;10.40;99.90
66257;DHT22;53049;43.446;3.698;2024-01-11T05:53:10;10.40;99.90
66257;DHT22;53049;43.446;3.698;2024-01-11T05:55:36;10.40;99.90
66257;DHT22;53049;43.446;3.698;2024-01-11T05:58:02;10.40;99.90
66257;DHT22;53049;43.446;3.698;2024-01-11T06:00:28;10.40;99.90
66257;DHT22;53049;43.446;3.698;2024-01-11T06:02:53;10.40;99.90
66257;DHT22;53049;43.446;3.698;2024-01-11T06:05:19;10.40;99.90
66257;DHT22;53049;43.446;3.698;2024-01-11T06:07:45;10.40;99.90
66257;DHT22;53049;43.446;3.698;2024-01-11T06:10:10;10.40;99.90
66257;DHT22;53049;43.446;3.698;2024-01-11T06:12:36;10.50;99.90
66257;DHT22;53049;43.446;3.698;2024-01-11T06:15:02;10.50;99.90
66257;DHT22;53049;43.446;3.698;2024-01-11T06:17:28;10.50;99.90
66257;DHT22;53049;43.446;3.698;2024-01-11T06:19:54;10.50;99.90
66257;DHT22;53049;43.446;3.698;2024-01-11T06:22:20;10.50;99.90
66257;DHT22;53049;43.446;3.698;2024-01-11T06:24:46;10.60;99.90
66257;DHT22;53049;43.446;3.698;2024-01-11T06:27:12;10.60;99.90
66257;DHT22;53049;43.446;3.698;2024-01-11T06:29:37;10.60;99.90
66257;DHT22;53049;43.446;3.698;2024-01-11T06:32:03;10.50;99.90
66257;DHT22;53049;43.446;3.698;2024-01-11T06:34:29;10.70;99.90
66257;DHT22;53049;43.446;3.698;2024-01-11T06:36:56;10.70;99.90
66257;DHT22;53049;43.446;3.698;2024-01-11T06:39:21;10.70;99.90
66257;DHT22;53049;43.446;3.698;2024-01-11T06:41:47;10.70;99.90
66257;DHT22;53049;43.446;3.698;2024-01-11T06:44:13;10.70;99.90
66257;DHT22;53049;43.446;3.698;2024-01-11T06:46:39;10.70;99.90
66257;DHT22;53049;43.446;3.698;2024-01-11T06:49:09;10.60;99.90
66257;DHT22;53049;43.446;3.698;2024-01-11T06:51:35;10.60;99.90
66257;DHT22;53049;43.446;3.698;2024-01-11T06:54:01;10.60;99.90
66257;DHT22;53049;43.446;3.698;2024-01-11T06:56:27;10.60;99.90
66257;DHT22;53049;43.446;3.698;2024-01-11T06:58:53;10.60;99.90
66257;DHT22;53049;43.446;3.698;2024-01-11T07:01:19;10.50;99.90
66257;DHT22;53049;43.446;3.698;2024-01-11T07:03:45;10.60;99.90
66257;DHT22;53049;43.446;3.698;2024-01-11T07:06:11;10.60;99.90
66257;DHT22;53049;43.446;3.698;2024-01-11T07:08:38;10.50;99.90
66257;DHT22;53049;43.446;3.698;2024-01-11T07:11:04;10.60;99.90
66257;DHT22;53049;43.446;3.698;2024-01-11T07:13:30;10.60;99.90
66257;DHT22;53049;43.446;3.698;2024-01-11T07:15:59;10.60;99.90
66257;DHT22;53049;43.446;3.698;2024-01-11T07:18:25;10.60;99.90
66257;DHT22;53049;43.446;3.698;2024-01-11T07:20:52;10.60;99.90
66257;DHT22;53049;43.446;3.698;2024-01-11T07:25:44;10.60;99.90
66257;DHT22;53049;43.446;3.698;2024-01-11T07:28:10;10.60;99.90
66257;DHT22;53049;43.446;3.698;2024-01-11T07:30:35;10.60;99.90
66257;DHT22;53049;43.446;3.698;2024-01-11T07:33:01;10.60;99.90
66257;DHT22;53049;43.446;3.698;2024-01-11T07:35:27;10.60;99.90
66257;DHT22;53049;43.446;3.698;2024-01-11T07:37:53;10.70;99.90
66257;DHT22;53049;43.446;3.698;2024-01-11T07:40:19;10.70;99.90
66257;DHT22;53049;43.446;3.698;2024-01-11T07:42:45;10.60;99.90
66257;DHT22;53049;43.446;3.698;2024-01-11T07:45:15;10.70;99.90
66257;DHT22;53049;43.446;3.698;2024-01-11T07:47:41;10.70;99.90
66257;DHT22;53049;43.446;3.698;2024-01-11T07:50:08;10.70;99.90
66257;DHT22;53049;43.446;3.698;2024-01-11T07:52:40;10.70;99.90
66257;DHT22;53049;43.446;3.698;2024-01-11T07:55:09;10.70;99.90
66257;DHT22;53049;43.446;3.698;2024-01-11T07:57:37;10.70;99.90
66257;DHT22;53049;43.446;3.698;2024-01-11T08:00:04;10.60;99.90
66257;DHT22;53049;43.446;3.698;2024-01-11T08:02:32;10.60;99.90
66257;DHT22;53049;43.446;3.698;2024-01-11T08:04:58;10.60;99.90
66257;DHT22;53049;43.446;3.698;2024-01-11T08:07:26;10.60;99.90
66257;DHT22;53049;43.446;3.698;2024-01-11T08:09:51;10.60;99.90
66257;DHT22;53049;43.446;3.698;2024-01-11T08:12:17;10.60;99.90
66257;DHT22;53049;43.446;3.698;2024-01-11T08:14:43;10.60;99.90
66257;DHT22;53049;43.446;3.698;2024-01-11T08:17:10;10.60;99.90
66257;DHT22;53049;43.446;3.698;2024-01-11T08:19:36;10.60;99.90
66257;DHT22;53049;43.446;3.698;2024-01-11T08:22:01;10.60;99.90
66257;DHT22;53049;43.446;3.698;2024-01-11T08:24:27;10.60;99.90
66257;DHT22;53049;43.446;3.698;2024-01-11T08:26:53;10.70;99.90
66257;DHT22;53049;43.446;3.698;2024-01-11T15:14:09;8.70;99.90
66257;DHT22;53049;43.446;3.698;2024-01-11T15:16:38;8.00;99.90
66257;DHT22;53049;43.446;3.698;2024-01-11T15:19:04;8.00;99.90
66257;DHT22;53049;43.446;3.698;2024-01-11T15:21:30;7.90;99.90
66257;DHT22;53049;43.446;3.698;2024-01-11T15:23:56;7.90;99.90
66257;DHT22;53049;43.446;3.698;2024-01-11T15:26:25;7.80;99.90
66257;DHT22;53049;43.446;3.698;2024-01-11T15:28:51;7.70;99.90
66257;DHT22;53049;43.446;3.698;2024-01-11T15:31:16;7.60;99.90
66257;DHT22;53049;43.446;3.698;2024-01-11T15:33:42;7.60;99.90
66257;DHT22;53049;43.446;3.698;2024-01-11T15:36:08;7.50;99.90
66257;DHT22;53049;43.446;3.698;2024-01-11T15:38:34;7.40;99.90
66257;DHT22;53049;43.446;3.698;2024-01-11T15:41:00;7.40;99.90
66257;DHT22;53049;43.446;3.698;2024-01-11T15:43:26;7.40;99.90
66257;DHT22;53049;43.446;3.698;2024-01-11T15:45:51;7.30;99.90
66257;DHT22;53049;43.446;3.698;2024-01-11T15:48:17;7.30;99.90
66257;DHT22;53049;43.446;3.698;2024-01-11T15:50:43;7.30;99.90
66257;DHT22;53049;43.446;3.698;2024-01-11T15:53:08;7.20;99.90
66257;DHT22;53049;43.446;3.698;2024-01-11T15:55:34;7.20;99.90
66257;DHT22;53049;43.446;3.698;2024-01-11T15:58:00;7.10;99.90
66257;DHT22;53049;43.446;3.698;2024-01-11T16:00:27;7.10;99.90
66257;DHT22;53049;43.446;3.698;2024-01-11T16:02:53;7.10;99.90
66257;DHT22;53049;43.446;3.698;2024-01-11T16:05:21;7.00;99.90
66257;DHT22;53049;43.446;3.698;2024-01-11T16:07:47;7.00;99.90
66257;DHT22;53049;43.446;3.698;2024-01-11T16:10:13;6.90;99.90
66257;DHT22;53049;43.446;3.698;2024-01-11T16:12:40;7.00;99.90
66257;DHT22;53049;43.446;3.698;2024-01-11T16:15:06;7.00;99.90
66257;DHT22;53049;43.446;3.698;2024-01-11T16:17:31;7.00;99.90
66257;DHT22;53049;43.446;3.698;2024-01-11T16:19:58;7.00;99.90
66257;DHT22;53049;43.446;3.698;2024-01-11T16:22:23;7.00;99.90
66257;DHT22;53049;43.446;3.698;2024-01-11T16:24:50;7.00;99.90
66257;DHT22;53049;43.446;3.698;2024-01-11T16:27:16;7.00;99.90
66257;DHT22;53049;43.446;3.698;2024-01-11T16:29:42;7.00;99.90
66257;DHT22;53049;43.446;3.698;2024-01-11T16:32:08;7.00;99.90
66257;DHT22;53049;43.446;3.698;2024-01-11T16:34:36;7.00;99.90
66257;DHT22;53049;43.446;3.698;2024-01-11T16:37:02;7.00;99.90
66257;DHT22;53049;43.446;3.698;2024-01-11T16:39:28;7.00;99.90
66257;DHT22;53049;43.446;3.698;2024-01-11T16:41:53;7.00;99.90
66257;DHT22;53049;43.446;3.698;2024-01-11T16:44:19;7.00;99.90
66257;DHT22;53049;43.446;3.698;2024-01-11T16:46:45;7.00;99.90
66257;DHT22;53049;43.446;3.698;2024-01-11T16:49:11;7.00;99.90
66257;DHT22;53049;43.446;3.698;2024-01-11T16:51:45;7.00;99.90
66257;DHT22;53049;43.446;3.698;2024-01-11T16:54:12;7.00;99.90
66257;DHT22;53049;43.446;3.698;2024-01-11T16:56:37;7.00;99.90
66257;DHT22;53049;43.446;3.698;2024-01-11T16:59:04;6.90;99.90
66257;DHT22;53049;43.446;3.698;2024-01-11T17:01:30;7.00;99.90
66257;DHT22;53049;43.446;3.698;2024-01-11T17:03:56;6.90;99.90
66257;DHT22;53049;43.446;3.698;2024-01-11T17:06:21;7.00;99.90
66257;DHT22;53049;43.446;3.698;2024-01-11T17:08:48;7.00;99.90
66257;DHT22;53049;43.446;3.698;2024-01-11T17:11:14;7.00;99.90
66257;DHT22;53049;43.446;3.698;2024-01-11T17:13:39;6.90;99.90
66257;DHT22;53049;43.446;3.698;2024-01-11T17:16:06;7.00;99.90
66257;DHT22;53049;43.446;3.698;2024-01-11T17:18:34;6.90;99.90
66257;DHT22;53049;43.446;3.698;2024-01-11T17:21:00;6.90;99.90
66257;DHT22;53049;43.446;3.698;2024-01-11T17:23:26;6.80;99.90
66257;DHT22;53049;43.446;3.698;2024-01-11T17:25:52;6.80;99.90
66257;DHT22;53049;43.446;3.698;2024-01-11T17:28:17;6.70;99.90
66257;DHT22;53049;43.446;3.698;2024-01-11T17:30:43;6.70;99.90
66257;DHT22;53049;43.446;3.698;2024-01-11T17:33:09;6.70;99.90
66257;DHT22;53049;43.446;3.698;2024-01-11T17:35:35;6.70;99.90
66257;DHT22;53049;43.446;3.698;2024-01-11T17:38:01;6.70;99.90
66257;DHT22;53049;43.446;3.698;2024-01-11T17:40:27;6.80;99.90
66257;DHT22;53049;43.446;3.698;2024-01-11T17:42:56;6.80;99.90
66257;DHT22;53049;43.446;3.698;2024-01-11T17:45:22;6.80;99.90
66257;DHT22;53049;43.446;3.698;2024-01-11T17:47:47;6.80;99.90
66257;DHT22;53049;43.446;3.698;2024-01-11T17:50:13;6.70;99.90
66257;DHT22;53049;43.446;3.698;2024-01-11T17:52:40;6.60;99.90
66257;DHT22;53049;43.446;3.698;2024-01-11T17:55:08;6.50;99.90
66257;DHT22;53049;43.446;3.698;2024-01-11T17:57:35;6.60;99.90
66257;DHT22;53049;43.446;3.698;2024-01-11T18:00:01;6.50;99.90
66257;DHT22;53049;43.446;3.698;2024-01-11T18:02:26;6.60;99.90
66257;DHT22;53049;43.446;3.698;2024-01-11T18:04:52;6.50;99.90
66257;DHT22;53049;43.446;3.698;2024-01-11T18:07:18;6.40;99.90
66257;DHT22;53049;43.446;3.698;2024-01-11T18:09:46;6.40;99.90
66257;DHT22;53049;43.446;3.698;2024-01-11T18:12:12;6.40;99.90
66257;DHT22;53049;43.446;3.698;2024-01-11T18:14:38;6.40;99.90
66257;DHT22;53049;43.446;3.698;2024-01-11T18:17:04;6.50;99.90
66257;DHT22;53049;43.446;3.698;2024-01-11T18:19:30;6.40;99.90
66257;DHT22;53049;43.446;3.698;2024-01-11T18:21:55;6.40;99.90
66257;DHT22;53049;43.446;3.698;2024-01-11T18:24:21;6.40;99.90
66257;DHT22;53049;43.446;3.698;2024-01-11T18:26:47;6.40;99.90
66257;DHT22;53049;43.446;3.698;2024-01-11T18:29:12;6.30;99.90
66257;DHT22;53049;43.446;3.698;2024-01-11T18:31:38;6.30;99.90
66257;DHT22;53049;43.446;3.698;2024-01-11T18:34:04;6.30;99.90
66257;DHT22;53049;43.446;3.698;2024-01-11T18:36:30;6.40;99.90
66257;DHT22;53049;43.446;3.698;2024-01-11T18:38:55;6.40;99.90
66257;DHT22;53049;43.446;3.698;2024-01-11T18:41:23;6.40;99.90
66257;DHT22;53049;43.446;3.698;2024-01-11T18:43:48;6.40;99.90
66257;DHT22;53049;43.446;3.698;2024-01-11T18:46:14;6.40;99.90
66257;DHT22;53049;43.446;3.698;2024-01-11T18:48:40;6.40;99.90
66257;DHT22;53049;43.446;3.698;2024-01-11T18:51:06;6.40;99.90
66257;DHT22;53049;43.446;3.698;2024-01-11T18:53:32;6.40;99.90
66257;DHT22;53049;43.446;3.698;2024-01-11T18:55:58;6.30;99.90
66257;DHT22;53049;43.446;3.698;2024-01-11T18:58:27;6.30;99.90
66257;DHT22;53049;43.446;3.698;2024-01-11T19:00:54;6.30;99.90
66257;DHT22;53049;43.446;3.698;2024-01-11T19:03:20;6.30;99.90
66257;DHT22;53049;43.446;3.698;2024-01-11T19:05:47;6.20;99.90
66257;DHT22;53049;43.446;3.698;2024-01-11T19:08:12;6.20;99.90
66257;DHT22;53049;43.446;3.698;2024-01-11T19:10:39;6.10;99.90
66257;DHT22;53049;43.446;3.698;2024-01-11T19:13:05;6.10;99.90
66257;DHT22;53049;43.446;3.698;2024-01-11T19:15:30;6.10;99.90
66257;DHT22;53049;43.446;3.698;2024-01-11T19:17:58;6.10;99.90
66257;DHT22;53049;43.446;3.698;2024-01-11T19:20:24;6.00;99.90
66257;DHT22;53049;43.446;3.698;2024-01-11T19:22:50;6.00;99.90
66257;DHT22;53049;43.446;3.698;2024-01-11T19:25:15;5.90;99.90
66257;DHT22;53049;43.446;3.698;2024-01-11T19:27:42;5.90;99.90
66257;DHT22;53049;43.446;3.698;2024-01-11T19:30:08;5.80;99.90
66257;DHT22;53049;43.446;3.698;2024-01-11T19:32:37;5.80;99.90
66257;DHT22;53049;43.446;3.698;2024-01-11T19:35:03;5.80;99.90
66257;DHT22;53049;43.446;3.698;2024-01-11T19:37:28;5.60;99.90
66257;DHT22;53049;43.446;3.698;2024-01-11T19:39:54;5.60;99.90
66257;DHT22;53049;43.446;3.698;2024-01-11T19:42:20;5.60;99.90
66257;DHT22;53049;43.446;3.698;2024-01-11T19:44:45;5.60;99.90
66257;DHT22;53049;43.446;3.698;2024-01-11T19:47:11;5.60;99.90
66257;DHT22;53049;43.446;3.698;2024-01-11T19:49:37;5.50;99.90
66257;DHT22;53049;43.446;3.698;2024-01-11T19:52:02;5.50;99.90
66257;DHT22;53049;43.446;3.698;2024-01-11T19:54:28;5.40;99.90
66257;DHT22;53049;43.446;3.698;2024-01-11T19:56:54;5.40;99.90
66257;DHT22;53049;43.446;3.698;2024-01-11T19:59:20;5.40;99.90
66257;DHT22;53049;43.446;3.698;2024-01-11T20:01:46;5.30;99.90
66257;DHT22;53049;43.446;3.698;2024-01-11T20:04:13;5.20;99.90
66257;DHT22;53049;43.446;3.698;2024-01-11T20:06:38;5.20;99.90
66257;DHT22;53049;43.446;3.698;2024-01-11T20:09:04;5.20;99.90
66257;DHT22;53049;43.446;3.698;2024-01-11T20:11:30;5.10;99.90
66257;DHT22;53049;43.446;3.698;2024-01-11T20:13:55;5.10;99.90
66257;DHT22;53049;43.446;3.698;2024-01-11T20:16:21;5.00;99.90
66257;DHT22;53049;43.446;3.698;2024-01-11T20:18:47;5.00;99.90
66257;DHT22;53049;43.446;3.698;2024-01-11T20:21:13;4.90;99.90
66257;DHT22;53049;43.446;3.698;2024-01-11T20:23:39;5.00;99.90
66257;DHT22;53049;43.446;3.698;2024-01-11T20:26:11;4.90;99.90
66257;DHT22;53049;43.446;3.698;2024-01-11T20:28:38;4.90;99.90
66257;DHT22;53049;43.446;3.698;2024-01-11T20:31:04;4.90;99.90
66257;DHT22;53049;43.446;3.698;2024-01-11T20:33:30;4.80;99.90
66257;DHT22;53049;43.446;3.698;2024-01-11T20:35:56;4.80;99.90
66257;DHT22;53049;43.446;3.698;2024-01-11T20:38:22;4.80;99.90
66257;DHT22;53049;43.446;3.698;2024-01-11T20:40:47;4.80;99.90
66257;DHT22;53049;43.446;3.698;2024-01-11T20:43:13;4.70;99.90
66257;DHT22;53049;43.446;3.698;2024-01-11T20:45:39;4.70;99.90
66257;DHT22;53049;43.446;3.698;2024-01-11T20:48:05;4.60;99.90
66257;DHT22;53049;43.446;3.698;2024-01-11T20:50:31;4.60;99.90
66257;DHT22;53049;43.446;3.698;2024-01-11T20:52:57;4.50;99.90
66257;DHT22;53049;43.446;3.698;2024-01-11T20:55:23;4.50;99.90
66257;DHT22;53049;43.446;3.698;2024-01-11T20:57:49;4.50;99.90
66257;DHT22;53049;43.446;3.698;2024-01-11T21:00:14;4.50;99.90
66257;DHT22;53049;43.446;3.698;2024-01-11T21:02:44;4.50;99.90
66257;DHT22;53049;43.446;3.698;2024-01-11T21:05:10;4.40;99.90
66257;DHT22;53049;43.446;3.698;2024-01-11T21:07:35;4.40;99.90
66257;DHT22;53049;43.446;3.698;2024-01-11T21:10:01;4.40;99.90
66257;DHT22;53049;43.446;3.698;2024-01-11T21:12:27;4.40;99.90
66257;DHT22;53049;43.446;3.698;2024-01-11T21:14:52;4.30;99.90
66257;DHT22;53049;43.446;3.698;2024-01-11T21:17:18;4.30;99.90
66257;DHT22;53049;43.446;3.698;2024-01-11T21:19:44;4.30;99.90
66257;DHT22;53049;43.446;3.698;2024-01-11T21:22:09;4.20;99.90
66257;DHT22;53049;43.446;3.698;2024-01-11T21:24:36;4.30;99.90
66257;DHT22;53049;43.446;3.698;2024-01-11T21:27:02;4.20;99.90
66257;DHT22;53049;43.446;3.698;2024-01-11T21:29:28;4.30;99.90
66257;DHT22;53049;43.446;3.698;2024-01-11T21:31:54;4.30;99.90
66257;DHT22;53049;43.446;3.698;2024-01-11T21:34:20;4.20;99.90
66257;DHT22;53049;43.446;3.698;2024-01-11T21:36:46;4.30;99.90
66257;DHT22;53049;43.446;3.698;2024-01-11T21:39:11;4.20;99.90
66257;DHT22;53049;43.446;3.698;2024-01-11T21:41:37;4.10;99.90
66257;DHT22;53049;43.446;3.698;2024-01-11T21:44:03;4.20;99.90
66257;DHT22;53049;43.446;3.698;2024-01-11T21:46:29;4.20;99.90
66257;DHT22;53049;43.446;3.698;2024-01-11T21:48:55;4.30;99.90
66257;DHT22;53049;43.446;3.698;2024-01-11T21:51:21;4.20;99.90
66257;DHT22;53049;43.446;3.698;2024-01-11T21:53:46;4.20;99.90
66257;DHT22;53049;43.446;3.698;2024-01-11T21:56:12;4.20;99.90
66257;DHT22;53049;43.446;3.698;2024-01-11T21:58:38;4.10;99.90
66257;DHT22;53049;43.446;3.698;2024-01-11T22:01:04;4.10;99.90
66257;DHT22;53049;43.446;3.698;2024-01-11T22:03:30;4.10;99.90
66257;DHT22;53049;43.446;3.698;2024-01-11T22:06:02;4.10;99.90
66257;DHT22;53049;43.446;3.698;2024-01-11T22:08:28;3.90;99.90
66257;DHT22;53049;43.446;3.698;2024-01-11T22:10:54;3.90;99.90
66257;DHT22;53049;43.446;3.698;2024-01-11T22:13:20;3.80;99.90
66257;DHT22;53049;43.446;3.698;2024-01-11T22:15:45;3.70;99.90
66257;DHT22;53049;43.446;3.698;2024-01-11T22:18:11;3.60;99.90
66257;DHT22;53049;43.446;3.698;2024-01-11T22:20:37;3.60;99.90